Samskip Ice — C6SO4 — position and weather

sailwx.info

Track history (hours):
 
Tides and Currents Weather Stations Pressure Air Temp Water Temp Dewpoint Dewpoint Depression Visibility Wind Speed Wind Dir Waves Ship Positions

Samskip Ice

Last reported at 2017-Feb-23 17:30 UTC. Time now 2017-Feb-26 10:40 UTC.
Position N 55°29' E 016°18'.

Length 86 m; draft 6.4 m.

Type: Cargo ship. MMSI: 311411000.

Date/timePositionNaut miles runAvg speedWind from/ knotsBaromVisibWave heightAir tempDewpointWater temp
2017-Feb-23 17:30N 55°29' E 016°18'1212.5
2017-Feb-23 16:33N 55°28' E 015°57'1312.7
2017-Feb-23 15:34N 55°27' E 015°35'1312.8
2017-Feb-23 14:33N 55°25' E 015°12'1312.7
2017-Feb-23 13:33N 55°24' E 014°50'1211.7
2017-Feb-23 12:33N 55°18' E 014°32'1211.9
2017-Feb-23 11:33N 55°09' E 014°19'1211.6
2017-Feb-23 10:33N 55°01' E 014°04'1212.1
2017-Feb-23 09:33N 54°57' E 013°45'3712.2
2017-Feb-23 06:33N 54°44' E 012°45'1312.7
2017-Feb-23 05:31N 54°36' E 012°27'1513.2
2017-Feb-23 04:22N 54°25' E 012°09'1113.6
2017-Feb-23 03:33N 54°24' E 011°50'1414.0
2017-Feb-23 02:33N 54°30' E 011°28'1514.7
2017-Feb-23 01:34N 54°36' E 011°05'1313.3
2017-Feb-23 00:34N 54°34' E 010°42'57 7.0
2017-Feb-22 16:27N 54°05' E 009°19'7 8.3
2017-Feb-22 15:33N 53°58' E 009°15'5 5.4
2017-Feb-22 14:33N 53°54' E 009°09'4 4.2
2017-Feb-22 13:33N 53°52' E 009°02'10 9.5
2017-Feb-22 12:34N 53°51' E 008°46'10 9.9
2017-Feb-22 11:33N 53°58' E 008°35'1111.1
2017-Feb-22 10:34N 53°60' E 008°16'1211.7
2017-Feb-22 09:34N 53°59' E 007°56'13612.4
2017-Feb-21 22:33N 53°01' E 004°28'1312.6
2017-Feb-21 21:32N 52°49' E 004°25'1212.0
2017-Feb-21 20:34N 52°37' E 004°29'9 9.3
2017-Feb-21 19:34N 52°28' E 004°32'3 2.8
2017-Feb-21 18:34N 52°28' E 004°37'2 1.8
2017-Feb-21 17:31N 52°28' E 004°40'0 0.0
2017-Feb-21 16:31N 52°28' E 004°40'0 0.0
2017-Feb-21 15:28N 52°28' E 004°40'0 0.0
2017-Feb-21 14:31N 52°28' E 004°40'0 0.0
2017-Feb-21 13:31N 52°28' E 004°40'0 0.0
2017-Feb-21 12:31N 52°28' E 004°40'0 0.0
2017-Feb-21 11:28N 52°28' E 004°40'1 1.4
2017-Feb-21 10:34N 52°28' E 004°38'2 1.8
2017-Feb-21 09:34N 52°28' E 004°35'4 4.4
2017-Feb-21 08:33N 52°28' E 004°28'1211.4
2017-Feb-21 07:33N 52°30' E 004°09'1212.4
2017-Feb-21 06:33N 52°40' E 003°57'62012.1
2017-Feb-19 03:14N 61°45' W 005°08'2011.9
2017-Feb-19 01:31N 62°02' W 005°33'1211.7
2017-Feb-19 00:27N 62°12' W 005°48'4711.6
2017-Feb-18 20:23N 62°46' W 006°59'  
Track history (hours):
 
Tides and Currents Weather Stations Pressure Air Temp Water Temp Dewpoint Dewpoint Depression Visibility Wind Speed Wind Dir Waves Ship Positions

Samskip Ice

Last reported at 2017-Feb-23 17:30 UTC. Time now 2017-Feb-26 10:40 UTC.
Position N 55°29' E 016°18'.

Length 86 m; draft 6.4 m.

Type: Cargo ship. MMSI: 311411000.

Date/timePositionNaut miles runAvg speedWind from/ knotsBaromVisibWave heightAir tempDewpointWater temp
2017-Feb-23 17:30N 55°29' E 016°18'1212.5
2017-Feb-23 16:33N 55°28' E 015°57'1312.7
2017-Feb-23 15:34N 55°27' E 015°35'1312.8
2017-Feb-23 14:33N 55°25' E 015°12'1312.7
2017-Feb-23 13:33N 55°24' E 014°50'1211.7
2017-Feb-23 12:33N 55°18' E 014°32'1211.9
2017-Feb-23 11:33N 55°09' E 014°19'1211.6
2017-Feb-23 10:33N 55°01' E 014°04'1212.1
2017-Feb-23 09:33N 54°57' E 013°45'3712.2
2017-Feb-23 06:33N 54°44' E 012°45'1312.7
2017-Feb-23 05:31N 54°36' E 012°27'1513.2
2017-Feb-23 04:22N 54°25' E 012°09'1113.6
2017-Feb-23 03:33N 54°24' E 011°50'1414.0
2017-Feb-23 02:33N 54°30' E 011°28'1514.7
2017-Feb-23 01:34N 54°36' E 011°05'1313.3
2017-Feb-23 00:34N 54°34' E 010°42'57 7.0
2017-Feb-22 16:27N 54°05' E 009°19'7 8.3
2017-Feb-22 15:33N 53°58' E 009°15'5 5.4
2017-Feb-22 14:33N 53°54' E 009°09'4 4.2
2017-Feb-22 13:33N 53°52' E 009°02'10 9.5
2017-Feb-22 12:34N 53°51' E 008°46'10 9.9
2017-Feb-22 11:33N 53°58' E 008°35'1111.1
2017-Feb-22 10:34N 53°60' E 008°16'1211.7
2017-Feb-22 09:34N 53°59' E 007°56'13612.4
2017-Feb-21 22:33N 53°01' E 004°28'1312.6
2017-Feb-21 21:32N 52°49' E 004°25'1212.0
2017-Feb-21 20:34N 52°37' E 004°29'9 9.3
2017-Feb-21 19:34N 52°28' E 004°32'3 2.8
2017-Feb-21 18:34N 52°28' E 004°37'2 1.8
2017-Feb-21 17:31N 52°28' E 004°40'0 0.0
2017-Feb-21 16:31N 52°28' E 004°40'0 0.0
2017-Feb-21 15:28N 52°28' E 004°40'0 0.0
2017-Feb-21 14:31N 52°28' E 004°40'0 0.0
2017-Feb-21 13:31N 52°28' E 004°40'0 0.0
2017-Feb-21 12:31N 52°28' E 004°40'0 0.0
2017-Feb-21 11:28N 52°28' E 004°40'1 1.4
2017-Feb-21 10:34N 52°28' E 004°38'2 1.8
2017-Feb-21 09:34N 52°28' E 004°35'4 4.4
2017-Feb-21 08:33N 52°28' E 004°28'1211.4
2017-Feb-21 07:33N 52°30' E 004°09'1212.4
2017-Feb-21 06:33N 52°40' E 003°57'62012.1
2017-Feb-19 03:14N 61°45' W 005°08'2011.9
2017-Feb-19 01:31N 62°02' W 005°33'1211.7
2017-Feb-19 00:27N 62°12' W 005°48'4711.6
2017-Feb-18 20:23N 62°46' W 006°59'  

Dump ship's entire track history